createdAt,value
2023-04-07T00:00:02.382Z,74
2023-04-07T00:01:02.601Z,74
2023-04-07T00:02:02.896Z,74
2023-04-07T00:03:03.198Z,74
2023-04-07T00:04:03.198Z,74
2023-04-07T00:05:02.809Z,74
2023-04-07T00:06:02.609Z,74
2023-04-07T00:07:02.357Z,74
2023-04-07T00:08:02.375Z,74
2023-04-07T00:09:02.141Z,74
2023-04-07T00:10:02.579Z,74
2023-04-07T00:11:02.392Z,74
2023-04-07T00:12:02.847Z,76
2023-04-07T00:13:02.680Z,76
2023-04-07T00:14:02.522Z,76
2023-04-07T00:15:02.313Z,75
2023-04-07T00:16:02.892Z,75
2023-04-07T00:17:03.075Z,76
2023-04-07T00:18:02.610Z,76
2023-04-07T00:19:03.027Z,75
2023-04-07T00:20:02.553Z,75
2023-04-07T00:21:03.054Z,75
2023-04-07T00:22:02.685Z,76
2023-04-07T00:23:03.200Z,76
2023-04-07T00:24:03.181Z,76
2023-04-07T00:25:02.833Z,76
2023-04-07T00:26:03.141Z,75
2023-04-07T00:27:03.039Z,76
2023-04-07T00:28:03.439Z,76
2023-04-07T00:29:03.149Z,75
2023-04-07T00:30:03.627Z,75
2023-04-07T00:31:03.479Z,75
2023-04-07T00:32:02.518Z,75
2023-04-07T00:33:02.351Z,75
2023-04-07T00:34:02.346Z,75
2023-04-07T00:35:02.749Z,75
2023-04-07T00:36:02.479Z,75
2023-04-07T00:37:02.297Z,75
2023-04-07T00:38:02.903Z,75
2023-04-07T00:39:02.665Z,75
2023-04-07T00:40:02.501Z,75
2023-04-07T00:41:02.582Z,75
2023-04-07T00:42:03.014Z,75
2023-04-07T00:43:03.593Z,75
2023-04-07T00:44:03.377Z,75
2023-04-07T00:45:03.210Z,75
2023-04-07T00:46:03.126Z,75
2023-04-07T00:47:02.790Z,75
2023-04-07T00:48:03.092Z,75
2023-04-07T00:49:02.856Z,75
2023-04-07T00:50:02.910Z,75
2023-04-07T00:51:02.789Z,74
2023-04-07T00:52:02.340Z,74
2023-04-07T00:53:02.669Z,74
2023-04-07T00:54:02.347Z,74
2023-04-07T00:55:02.569Z,74
2023-04-07T00:56:02.524Z,74
2023-04-07T00:57:02.597Z,74
2023-04-07T00:58:02.534Z,74
2023-04-07T00:59:02.476Z,74
2023-04-07T01:00:02.871Z,74
2023-04-07T01:01:02.500Z,74
2023-04-07T01:02:03.223Z,74
2023-04-07T01:03:03.439Z,73
2023-04-07T01:04:03.198Z,73
2023-04-07T01:05:02.956Z,73
2023-04-07T01:06:03.504Z,73
2023-04-07T01:07:03.119Z,73
2023-04-07T01:08:02.919Z,73
2023-04-07T01:09:03.459Z,73
2023-04-07T01:10:03.301Z,73
2023-04-07T01:11:02.951Z,72
2023-04-07T01:12:02.511Z,72
2023-04-07T01:13:02.697Z,71
2023-04-07T01:14:02.367Z,71
2023-04-07T01:15:02.749Z,71
2023-04-07T01:16:02.696Z,71
2023-04-07T01:17:02.557Z,71
2023-04-07T01:18:02.416Z,72
2023-04-07T01:19:02.627Z,71
2023-04-07T01:20:02.362Z,71
2023-04-07T01:21:02.402Z,70
2023-04-07T01:22:03.064Z,70
2023-04-07T01:23:02.907Z,71
2023-04-07T01:24:02.848Z,71
2023-04-07T01:25:03.319Z,71
2023-04-07T01:26:03.244Z,71
2023-04-07T01:27:02.724Z,71
2023-04-07T01:28:02.580Z,71
2023-04-07T01:29:02.308Z,70
2023-04-07T01:30:02.312Z,70
2023-04-07T01:31:02.323Z,61
2023-04-07T01:32:02.610Z,64
2023-04-07T01:33:02.756Z,63
2023-04-07T01:34:02.615Z,65
2023-04-07T01:35:03.215Z,65
2023-04-07T01:36:02.921Z,65
2023-04-07T01:37:02.549Z,65
2023-04-07T01:38:02.532Z,65
2023-04-07T01:39:02.236Z,64
2023-04-07T01:40:02.240Z,64
2023-04-07T01:41:02.279Z,66
2023-04-07T01:42:02.862Z,66
2023-04-07T01:43:03.076Z,66
2023-04-07T01:44:02.784Z,66
2023-04-07T01:45:02.630Z,66
2023-04-07T01:46:02.580Z,66
2023-04-07T01:47:02.553Z,66
2023-04-07T01:48:02.290Z,63
2023-04-07T01:49:02.136Z,61
2023-04-07T01:50:02.209Z,69
2023-04-07T01:51:02.102Z,63
2023-04-07T01:52:02.733Z,69
2023-04-07T01:53:02.248Z,70
2023-04-07T01:54:02.787Z,69
2023-04-07T01:55:02.481Z,70
2023-04-07T01:56:02.324Z,70
2023-04-07T01:57:02.806Z,70
2023-04-07T01:58:03.001Z,70
2023-04-07T01:59:02.699Z,70
2023-04-07T02:00:03.019Z,70
2023-04-07T02:01:02.640Z,61
2023-04-07T02:02:03.119Z,61
2023-04-07T02:03:03.375Z,63
2023-04-07T02:04:02.759Z,62
2023-04-07T02:05:02.802Z,67
2023-04-07T02:06:03.256Z,67
2023-04-07T02:07:02.497Z,68
2023-04-07T02:08:02.359Z,69
2023-04-07T02:09:02.784Z,68
2023-04-07T02:10:02.374Z,66
2023-04-07T02:11:02.545Z,64
2023-04-07T02:12:02.928Z,67
2023-04-07T02:13:02.702Z,68
2023-04-07T02:14:03.064Z,69
2023-04-07T02:15:03.044Z,69
2023-04-07T02:16:02.667Z,70
2023-04-07T02:17:02.877Z,71
2023-04-07T02:18:02.700Z,71
2023-04-07T02:19:03.235Z,64
2023-04-07T02:20:03.128Z,72
2023-04-07T02:21:03.005Z,72
2023-04-07T02:22:02.624Z,72
2023-04-07T02:23:02.334Z,73
2023-04-07T02:24:02.242Z,73
2023-04-07T02:25:02.165Z,73
2023-04-07T02:26:02.700Z,73
2023-04-07T02:27:03.365Z,73
2023-04-07T02:28:02.940Z,73
2023-04-07T02:29:02.838Z,73
2023-04-07T02:30:02.767Z,73
2023-04-07T02:31:03.405Z,73
2023-04-07T02:32:02.806Z,73
2023-04-07T02:33:02.772Z,73
2023-04-07T02:34:02.449Z,73
2023-04-07T02:35:02.639Z,73
2023-04-07T02:36:02.547Z,73
2023-04-07T02:37:03.312Z,73
2023-04-07T02:38:03.090Z,73
2023-04-07T02:39:02.790Z,73
2023-04-07T02:40:02.622Z,73
2023-04-07T02:41:03.117Z,73
2023-04-07T02:42:02.859Z,73
2023-04-07T02:43:02.772Z,73
2023-04-07T02:44:02.662Z,73
2023-04-07T02:45:03.304Z,73
2023-04-07T02:46:02.974Z,73
2023-04-07T02:47:01.995Z,73
2023-04-07T02:48:02.586Z,73
2023-04-07T02:49:02.615Z,73
2023-04-07T02:50:02.294Z,74
2023-04-07T02:51:02.234Z,74
2023-04-07T02:52:02.513Z,74
2023-04-07T02:53:03.179Z,74
2023-04-07T02:54:02.791Z,76
2023-04-07T02:55:02.693Z,76
2023-04-07T02:56:02.620Z,77
2023-04-07T02:57:02.622Z,78
2023-04-07T02:58:03.083Z,77
2023-04-07T02:59:02.885Z,77
2023-04-07T03:00:02.760Z,77
2023-04-07T03:01:03.083Z,77
2023-04-07T03:02:02.542Z,78
2023-04-07T03:03:02.710Z,78
2023-04-07T03:04:02.260Z,78
2023-04-07T03:05:02.330Z,78
2023-04-07T03:06:02.196Z,77
2023-04-07T03:07:02.646Z,77
2023-04-07T03:08:02.447Z,74
2023-04-07T03:09:02.036Z,65
2023-04-07T03:10:02.339Z,73
2023-04-07T03:11:02.150Z,67
2023-04-07T03:12:01.642Z,68
2023-04-07T03:13:01.955Z,74
2023-04-07T03:14:01.991Z,73
2023-04-07T03:15:01.677Z,68
2023-04-07T03:16:01.606Z,73
2023-04-07T03:17:02.217Z,73
2023-04-07T03:18:02.181Z,75
2023-04-07T03:19:02.481Z,73
2023-04-07T03:20:02.317Z,73
2023-04-07T03:21:02.185Z,71
2023-04-07T03:22:01.890Z,70
2023-04-07T03:23:01.776Z,65
2023-04-07T03:24:01.727Z,66
2023-04-07T03:25:02.358Z,67
2023-04-07T03:26:01.985Z,81
2023-04-07T03:27:02.525Z,81
2023-04-07T03:28:02.398Z,81
2023-04-07T03:29:02.925Z,82
2023-04-07T03:30:02.545Z,82
2023-04-07T03:31:02.411Z,82
2023-04-07T03:32:02.105Z,82
2023-04-07T03:33:02.043Z,82
2023-04-07T03:34:01.972Z,82
2023-04-07T03:35:02.548Z,82
2023-04-07T03:36:02.230Z,82
2023-04-07T03:37:02.146Z,82
2023-04-07T03:38:02.057Z,82
2023-04-07T03:39:02.499Z,82
2023-04-07T03:40:02.151Z,82
2023-04-07T03:41:02.310Z,82
2023-04-07T03:42:02.197Z,82
2023-04-07T03:43:02.112Z,82
2023-04-07T03:44:02.026Z,82
2023-04-07T03:45:02.567Z,82
2023-04-07T03:46:02.370Z,82
2023-04-07T03:47:01.929Z,82
2023-04-07T03:48:01.895Z,82
2023-04-07T03:49:01.740Z,82
2023-04-07T03:50:01.611Z,82
2023-04-07T03:51:02.229Z,82
2023-04-07T03:52:01.929Z,82
2023-04-07T03:53:01.850Z,82
2023-04-07T03:54:01.782Z,82
2023-04-07T03:55:01.698Z,82
2023-04-07T03:56:01.618Z,82
2023-04-07T03:57:02.239Z,82
2023-04-07T03:58:02.151Z,82
2023-04-07T03:59:02.059Z,82
2023-04-07T04:00:02.138Z,82
2023-04-07T04:01:02.169Z,82
2023-04-07T04:02:02.781Z,82
2023-04-07T04:03:02.776Z,82
2023-04-07T04:04:02.994Z,82
2023-04-07T04:05:03.141Z,82
2023-04-07T04:06:02.829Z,82
2023-04-07T04:07:02.592Z,81
2023-04-07T04:08:02.334Z,81
2023-04-07T04:09:02.242Z,81
2023-04-07T04:10:02.845Z,81
2023-04-07T04:11:02.212Z,81
2023-04-07T04:12:02.763Z,81
2023-04-07T04:13:02.586Z,81
2023-04-07T04:14:03.096Z,81
2023-04-07T04:15:02.739Z,81
2023-04-07T04:16:02.735Z,81
2023-04-07T04:17:02.010Z,80
2023-04-07T04:18:02.487Z,80
2023-04-07T04:19:02.096Z,80
2023-04-07T04:20:02.022Z,80
2023-04-07T04:21:01.958Z,80
2023-04-07T04:22:02.562Z,80
2023-04-07T04:23:02.464Z,80
2023-04-07T04:24:02.539Z,80
2023-04-07T04:25:02.227Z,80
2023-04-07T04:26:02.562Z,80
2023-04-07T04:27:02.256Z,80
2023-04-07T04:28:02.175Z,80
2023-04-07T04:29:02.243Z,80
2023-04-07T04:30:02.087Z,80
2023-04-07T04:31:02.437Z,80
2023-04-07T04:32:02.321Z,80
2023-04-07T04:33:02.157Z,80
2023-04-07T04:34:01.812Z,80
2023-04-07T04:35:02.169Z,80
2023-04-07T04:36:02.013Z,80
2023-04-07T04:37:02.926Z,80
2023-04-07T04:38:02.809Z,80
2023-04-07T04:39:02.733Z,80
2023-04-07T04:40:03.102Z,80
2023-04-07T04:41:02.877Z,80
2023-04-07T04:42:02.296Z,80
2023-04-07T04:43:02.720Z,80
2023-04-07T04:44:02.301Z,80
2023-04-07T04:45:02.611Z,80
2023-04-07T04:46:02.496Z,81
2023-04-07T04:47:03.306Z,81
2023-04-07T04:48:03.093Z,81
2023-04-07T04:49:03.049Z,82
2023-04-07T04:50:02.904Z,82
2023-04-07T04:51:02.874Z,82
2023-04-07T04:52:02.647Z,82
2023-04-07T04:53:02.186Z,82
2023-04-07T04:54:02.160Z,82
2023-04-07T04:55:02.557Z,81
2023-04-07T04:56:02.086Z,81
2023-04-07T04:57:02.440Z,81
2023-04-07T04:58:02.215Z,81
2023-04-07T04:59:02.163Z,81
2023-04-07T05:00:02.740Z,80
2023-04-07T05:01:02.438Z,80
2023-04-07T05:02:03.337Z,80
2023-04-07T05:03:02.783Z,80
2023-04-07T05:04:03.149Z,80
2023-04-07T05:05:02.661Z,80
2023-04-07T05:06:03.121Z,80
2023-04-07T05:07:02.084Z,80
2023-04-07T05:08:02.071Z,80
2023-04-07T05:09:02.187Z,80
2023-04-07T05:10:02.428Z,80
2023-04-07T05:11:02.713Z,80
2023-04-07T05:12:02.842Z,80
2023-04-07T05:13:02.495Z,80
2023-04-07T05:14:02.778Z,80
2023-04-07T05:15:02.715Z,80
2023-04-07T05:16:02.309Z,80
2023-04-07T05:17:02.640Z,80
2023-04-07T05:18:02.444Z,79
2023-04-07T05:19:02.910Z,79
2023-04-07T05:20:02.772Z,79
2023-04-07T05:21:02.846Z,79
2023-04-07T05:22:02.487Z,79
2023-04-07T05:23:02.542Z,79
2023-04-07T05:24:02.399Z,79
2023-04-07T05:25:02.440Z,79
2023-04-07T05:26:02.129Z,79
2023-04-07T05:27:02.415Z,79
2023-04-07T05:28:02.520Z,79
2023-04-07T05:29:02.607Z,79
2023-04-07T05:30:02.164Z,79
2023-04-07T05:31:02.472Z,79
2023-04-07T05:32:02.641Z,79
2023-04-07T05:33:02.739Z,79
2023-04-07T05:34:03.008Z,79
2023-04-07T05:35:02.744Z,79
2023-04-07T05:36:03.030Z,79
2023-04-07T05:37:02.939Z,79
2023-04-07T05:38:02.965Z,79
2023-04-07T05:39:02.671Z,79
2023-04-07T05:40:03.044Z,79
2023-04-07T05:41:03.244Z,79
2023-04-07T05:42:02.118Z,79
2023-04-07T05:43:02.395Z,79
2023-04-07T05:44:02.519Z,79
2023-04-07T05:45:02.313Z,79
2023-04-07T05:46:02.387Z,78
2023-04-07T05:47:02.337Z,79
2023-04-07T05:48:02.427Z,78
2023-04-07T05:49:13.279Z,79
2023-04-07T05:50:02.652Z,78
2023-04-07T05:51:02.709Z,78
2023-04-07T05:52:02.695Z,79
2023-04-07T05:53:02.911Z,78
2023-04-07T05:54:02.617Z,78
2023-04-07T05:55:03.002Z,78
2023-04-07T05:56:03.067Z,78
2023-04-07T05:57:02.226Z,78
2023-04-07T05:58:02.457Z,78
2023-04-07T05:59:02.270Z,78
2023-04-07T06:00:02.460Z,78
2023-04-07T06:01:02.197Z,78
2023-04-07T06:02:03.372Z,78
2023-04-07T06:03:03.252Z,78
2023-04-07T06:04:02.845Z,78
2023-04-07T06:05:03.432Z,78
2023-04-07T06:06:02.931Z,78
2023-04-07T06:07:02.904Z,78
2023-04-07T06:08:03.342Z,78
2023-04-07T06:09:03.403Z,78
2023-04-07T06:10:02.994Z,78
2023-04-07T06:11:02.914Z,78
2023-04-07T06:12:03.258Z,78
2023-04-07T06:13:03.411Z,78
2023-04-07T06:14:03.239Z,78
2023-04-07T06:15:03.228Z,78
2023-04-07T06:16:03.317Z,78
2023-04-07T06:17:02.578Z,78
2023-04-07T06:18:02.743Z,78
2023-04-07T06:19:02.805Z,78
2023-04-07T06:20:02.802Z,78
2023-04-07T06:21:02.294Z,78
2023-04-07T06:22:03.058Z,78
2023-04-07T06:23:02.936Z,78
2023-04-07T06:24:03.368Z,78
2023-04-07T06:25:03.354Z,78
2023-04-07T06:26:03.400Z,78
2023-04-07T06:27:02.764Z,78
2023-04-07T06:28:02.688Z,78
2023-04-07T06:29:02.728Z,78
2023-04-07T06:30:02.814Z,78
2023-04-07T06:31:03.143Z,78
2023-04-07T06:32:03.174Z,78
2023-04-07T06:33:03.325Z,78
2023-04-07T06:34:03.284Z,78
2023-04-07T06:35:02.980Z,78
2023-04-07T06:36:02.967Z,78
2023-04-07T06:37:02.718Z,78
2023-04-07T06:38:03.053Z,78
2023-04-07T06:39:02.929Z,78
2023-04-07T06:40:02.884Z,78
2023-04-07T06:41:02.686Z,78
2023-04-07T06:42:02.957Z,78
2023-04-07T06:43:02.662Z,78
2023-04-07T06:44:03.143Z,78
2023-04-07T06:45:03.121Z,78
2023-04-07T06:46:02.833Z,78
2023-04-07T06:47:03.334Z,78
2023-04-07T06:48:03.490Z,78
2023-04-07T06:49:03.436Z,78
2023-04-07T06:50:03.604Z,78
2023-04-07T06:51:03.429Z,78
2023-04-07T06:52:03.161Z,78
2023-04-07T06:53:03.426Z,78
2023-04-07T06:54:03.036Z,78
2023-04-07T06:55:03.147Z,78
2023-04-07T06:56:02.920Z,78
2023-04-07T06:57:02.725Z,78
2023-04-07T06:58:02.438Z,78
2023-04-07T06:59:02.535Z,78
2023-04-07T07:00:02.450Z,78
2023-04-07T07:01:02.894Z,78
2023-04-07T07:02:02.841Z,78
2023-04-07T07:03:02.934Z,78
2023-04-07T07:04:02.699Z,78
2023-04-07T07:05:02.498Z,78
2023-04-07T07:06:02.424Z,78
2023-04-07T07:07:03.100Z,78
2023-04-07T07:08:03.434Z,78
2023-04-07T07:09:03.637Z,78
2023-04-07T07:10:03.018Z,78
2023-04-07T07:11:03.062Z,78
2023-04-07T07:12:04.332Z,78
2023-04-07T07:13:02.689Z,78
2023-04-07T07:14:02.727Z,78
2023-04-07T07:15:02.482Z,78
2023-04-07T07:16:03.071Z,78
2023-04-07T07:17:02.845Z,78
2023-04-07T07:18:02.807Z,79
2023-04-07T07:19:02.417Z,79
2023-04-07T07:20:02.989Z,79
2023-04-07T07:21:02.769Z,78
2023-04-07T07:22:03.326Z,78
2023-04-07T07:23:03.454Z,79
2023-04-07T07:24:03.547Z,78
2023-04-07T07:25:03.325Z,79
2023-04-07T07:26:03.532Z,78
2023-04-07T07:27:03.025Z,78
2023-04-07T07:28:02.665Z,79
2023-04-07T07:29:02.923Z,79
2023-04-07T07:30:03.026Z,79
2023-04-07T07:31:02.919Z,78
2023-04-07T07:32:03.738Z,79
2023-04-07T07:33:03.820Z,79
2023-04-07T07:34:03.321Z,79
2023-04-07T07:35:03.206Z,79
2023-04-07T07:36:03.552Z,78
2023-04-07T07:37:03.259Z,78
2023-04-07T07:38:02.975Z,78
2023-04-07T07:39:03.293Z,78
2023-04-07T07:40:02.780Z,78
2023-04-07T07:41:02.961Z,78
2023-04-07T07:42:03.507Z,78
2023-04-07T07:43:03.057Z,78
2023-04-07T07:44:03.340Z,78
2023-04-07T07:45:03.353Z,78
2023-04-07T07:46:02.976Z,78
2023-04-07T07:47:03.057Z,78
2023-04-07T07:48:03.010Z,78
2023-04-07T07:49:02.845Z,79
2023-04-07T07:50:02.867Z,78
2023-04-07T07:51:03.156Z,78
2023-04-07T07:52:03.387Z,79
2023-04-07T07:53:03.140Z,78
2023-04-07T07:54:03.395Z,78
2023-04-07T07:55:03.146Z,78
2023-04-07T07:56:03.398Z,78
2023-04-07T07:57:02.299Z,78
2023-04-07T07:58:02.372Z,78
2023-04-07T07:59:02.393Z,78
2023-04-07T08:00:02.407Z,78
2023-04-07T08:01:02.907Z,78
2023-04-07T08:02:02.987Z,78
2023-04-07T08:03:03.118Z,78
2023-04-07T08:04:03.312Z,78
2023-04-07T08:05:02.816Z,78
2023-04-07T08:06:02.957Z,78
2023-04-07T08:07:03.036Z,78
2023-04-07T08:08:03.699Z,78
2023-04-07T08:09:03.516Z,78
2023-04-07T08:10:03.399Z,78
2023-04-07T08:11:03.458Z,78
2023-04-07T08:12:02.559Z,78
2023-04-07T08:13:02.547Z,78
2023-04-07T08:14:02.609Z,78
2023-04-07T08:15:02.677Z,78
2023-04-07T08:16:02.627Z,78
2023-04-07T08:17:02.585Z,78
2023-04-07T08:18:02.849Z,78
2023-04-07T08:19:02.824Z,78
2023-04-07T08:20:02.935Z,78
2023-04-07T08:21:02.632Z,78
2023-04-07T08:22:02.676Z,78
2023-04-07T08:23:03.289Z,78
2023-04-07T08:24:02.952Z,78
2023-04-07T08:25:03.043Z,78
2023-04-07T08:26:03.021Z,78
2023-04-07T08:27:03.444Z,78
2023-04-07T08:28:03.469Z,78
2023-04-07T08:29:03.358Z,78
2023-04-07T08:30:03.367Z,79
2023-04-07T08:31:03.563Z,78
2023-04-07T08:32:02.536Z,78
2023-04-07T08:33:02.379Z,79
2023-04-07T08:34:02.590Z,78
2023-04-07T08:35:02.910Z,78
2023-04-07T08:36:02.438Z,78
2023-04-07T08:37:02.643Z,78
2023-04-07T08:38:02.693Z,78
2023-04-07T08:39:02.729Z,78
2023-04-07T08:40:02.785Z,78
2023-04-07T08:41:03.065Z,78
2023-04-07T08:42:03.143Z,78
2023-04-07T08:43:03.265Z,78
2023-04-07T08:44:03.293Z,78
2023-04-07T08:45:03.372Z,78
2023-04-07T08:46:03.483Z,78
2023-04-07T08:47:02.418Z,78
2023-04-07T08:48:02.445Z,78
2023-04-07T08:49:02.480Z,78
2023-04-07T08:50:02.522Z,78
2023-04-07T08:51:02.414Z,78
2023-04-07T08:52:04.111Z,78
2023-04-07T08:53:02.457Z,78
2023-04-07T08:54:02.545Z,78
2023-04-07T08:55:02.484Z,78
2023-04-07T08:56:03.015Z,78
2023-04-07T08:57:02.913Z,78
2023-04-07T08:58:02.822Z,78
2023-04-07T08:59:03.005Z,78
2023-04-07T09:00:03.309Z,78
2023-04-07T09:01:03.293Z,78
2023-04-07T09:02:03.131Z,78
2023-04-07T09:03:03.629Z,78
2023-04-07T09:04:03.690Z,78
2023-04-07T09:05:03.668Z,78
2023-04-07T09:06:03.468Z,78
2023-04-07T09:07:02.643Z,78
2023-04-07T09:08:02.641Z,78
2023-04-07T09:09:02.766Z,78
2023-04-07T09:10:02.704Z,78
2023-04-07T09:11:02.976Z,78
2023-04-07T09:12:03.135Z,78
2023-04-07T09:13:03.174Z,78
2023-04-07T09:14:03.311Z,78
2023-04-07T09:15:03.375Z,78
2023-04-07T09:16:03.022Z,78
2023-04-07T09:17:02.533Z,78
2023-04-07T09:18:02.479Z,78
2023-04-07T09:19:02.547Z,77
2023-04-07T09:20:02.860Z,77
2023-04-07T09:21:02.846Z,77
2023-04-07T09:22:02.960Z,77
2023-04-07T09:23:03.291Z,77
2023-04-07T09:24:03.147Z,77
2023-04-07T09:25:02.842Z,77
2023-04-07T09:26:02.853Z,77
2023-04-07T09:27:02.969Z,77
2023-04-07T09:28:02.985Z,77
2023-04-07T09:29:03.049Z,77
2023-04-07T09:30:03.021Z,78
2023-04-07T09:31:02.748Z,77
2023-04-07T09:32:02.533Z,77
2023-04-07T09:33:02.622Z,77
2023-04-07T09:34:02.734Z,77
2023-04-07T09:35:02.768Z,77
2023-04-07T09:36:02.386Z,77
2023-04-07T09:37:02.708Z,77
2023-04-07T09:38:02.772Z,77
2023-04-07T09:39:02.751Z,77
2023-04-07T09:40:02.701Z,77
2023-04-07T09:41:02.730Z,77
2023-04-07T09:42:03.261Z,77
2023-04-07T09:43:03.283Z,77
2023-04-07T09:44:03.072Z,77
2023-04-07T09:45:03.022Z,77
2023-04-07T09:46:03.028Z,77
2023-04-07T09:47:02.801Z,77
2023-04-07T09:48:02.915Z,77
2023-04-07T09:49:03.076Z,77
2023-04-07T09:50:02.713Z,77
2023-04-07T09:51:02.592Z,77
2023-04-07T09:52:02.948Z,77
2023-04-07T09:53:03.250Z,77
2023-04-07T09:54:02.641Z,77
2023-04-07T09:55:02.680Z,77
2023-04-07T09:56:02.867Z,77
2023-04-07T09:57:02.616Z,77
2023-04-07T09:58:02.602Z,77
2023-04-07T09:59:02.234Z,77
2023-04-07T10:00:02.260Z,77
2023-04-07T10:01:02.393Z,77
2023-04-07T10:02:03.228Z,77
2023-04-07T10:03:03.289Z,77
2023-04-07T10:04:03.225Z,77
2023-04-07T10:05:02.729Z,77
2023-04-07T10:06:02.828Z,77
2023-04-07T10:07:02.639Z,77
2023-04-07T10:08:02.578Z,77
2023-04-07T10:09:02.639Z,77
2023-04-07T10:10:02.578Z,77
2023-04-07T10:11:02.814Z,77
2023-04-07T10:12:02.753Z,77
2023-04-07T10:13:02.844Z,77
2023-04-07T10:14:02.512Z,77
2023-04-07T10:15:02.798Z,77
2023-04-07T10:16:02.894Z,77
2023-04-07T10:17:03.489Z,77
2023-04-07T10:18:03.435Z,77
2023-04-07T10:19:03.050Z,77
2023-04-07T10:20:03.597Z,77
2023-04-07T10:21:03.357Z,77
2023-04-07T10:22:03.115Z,77
2023-04-07T10:23:02.995Z,77
2023-04-07T10:24:03.160Z,77
2023-04-07T10:25:02.902Z,77
2023-04-07T10:26:02.939Z,77
2023-04-07T10:27:02.538Z,77
2023-04-07T10:28:02.585Z,77
2023-04-07T10:29:02.226Z,77
2023-04-07T10:30:02.228Z,77
2023-04-07T10:31:02.247Z,77
2023-04-07T10:32:03.014Z,77
2023-04-07T10:33:02.731Z,77
2023-04-07T10:34:03.040Z,77
2023-04-07T10:35:03.104Z,77
2023-04-07T10:36:03.000Z,77
2023-04-07T10:37:02.624Z,77
2023-04-07T10:38:02.454Z,77
2023-04-07T10:39:02.218Z,77
2023-04-07T10:40:02.159Z,77
2023-04-07T10:41:02.576Z,77
2023-04-07T10:42:03.075Z,77
2023-04-07T10:43:02.670Z,77
2023-04-07T10:44:02.689Z,77
2023-04-07T10:45:02.834Z,77
2023-04-07T10:46:02.620Z,77
2023-04-07T10:47:01.966Z,77
2023-04-07T10:48:02.136Z,77
2023-04-07T10:49:02.038Z,77
2023-04-07T10:50:02.031Z,77
2023-04-07T10:51:02.140Z,77
2023-04-07T10:52:02.540Z,77
2023-04-07T10:53:03.082Z,77
2023-04-07T10:54:02.660Z,77
2023-04-07T10:55:02.772Z,77
2023-04-07T10:56:02.896Z,77
2023-04-07T10:57:02.734Z,77
2023-04-07T10:58:03.242Z,77
2023-04-07T10:59:02.866Z,77
2023-04-07T11:00:02.981Z,77
2023-04-07T11:01:03.153Z,77
2023-04-07T11:02:03.278Z,78
2023-04-07T11:03:02.566Z,78
2023-04-07T11:04:02.560Z,78
2023-04-07T11:05:02.337Z,78
2023-04-07T11:06:02.668Z,78
2023-04-07T11:07:02.682Z,78
2023-04-07T11:08:02.495Z,78
2023-04-07T11:09:02.436Z,78
2023-04-07T11:10:02.325Z,78
2023-04-07T11:11:02.475Z,78
2023-04-07T11:12:02.345Z,78
2023-04-07T11:13:02.374Z,78
2023-04-07T11:14:02.436Z,78
2023-04-07T11:15:02.517Z,78
2023-04-07T11:16:02.527Z,78
2023-04-07T11:17:02.527Z,78
2023-04-07T11:18:02.598Z,78
2023-04-07T11:19:02.718Z,78
2023-04-07T11:20:02.872Z,78
2023-04-07T11:21:02.546Z,78
2023-04-07T11:22:02.455Z,79
2023-04-07T11:23:02.313Z,79
2023-04-07T11:24:02.281Z,79
2023-04-07T11:25:02.100Z,79
2023-04-07T11:26:02.204Z,79
2023-04-07T11:27:02.442Z,79
2023-04-07T11:28:01.910Z,79
2023-04-07T11:29:01.973Z,79
2023-04-07T11:30:02.020Z,79
2023-04-07T11:31:02.200Z,79
2023-04-07T11:32:02.110Z,79
2023-04-07T11:33:02.961Z,79
2023-04-07T11:34:02.454Z,79
2023-04-07T11:35:03.108Z,79
2023-04-07T11:36:03.139Z,79
2023-04-07T11:37:02.939Z,79
2023-04-07T11:38:03.091Z,79
2023-04-07T11:39:03.356Z,79
2023-04-07T11:40:03.006Z,79
2023-04-07T11:41:03.118Z,79
2023-04-07T11:42:03.153Z,79
2023-04-07T11:43:01.829Z,79
2023-04-07T11:44:01.954Z,79
2023-04-07T11:45:01.949Z,79
2023-04-07T11:46:02.255Z,79
2023-04-07T11:47:01.942Z,79
2023-04-07T11:48:02.811Z,79
2023-04-07T11:49:02.674Z,79
2023-04-07T11:50:02.446Z,79
2023-04-07T11:51:02.312Z,79
2023-04-07T11:52:02.420Z,79
2023-04-07T11:53:03.126Z,79
2023-04-07T11:54:03.042Z,79
2023-04-07T11:55:03.309Z,79
2023-04-07T11:56:03.021Z,79
2023-04-07T11:57:02.697Z,79
2023-04-07T11:58:02.205Z,79
2023-04-07T11:59:02.334Z,79
2023-04-07T12:00:02.425Z,79
2023-04-07T12:01:01.991Z,79
2023-04-07T12:02:02.278Z,79
2023-04-07T12:03:02.604Z,79
2023-04-07T12:04:03.273Z,79
2023-04-07T12:05:02.816Z,79
2023-04-07T12:06:02.854Z,79
2023-04-07T12:07:02.683Z,79
2023-04-07T12:08:02.029Z,79
2023-04-07T12:09:02.375Z,79
2023-04-07T12:10:02.482Z,79
2023-04-07T12:11:02.032Z,79
2023-04-07T12:12:01.982Z,79
2023-04-07T12:13:02.816Z,79
2023-04-07T12:14:02.324Z,79
2023-04-07T12:15:02.348Z,79
2023-04-07T12:16:02.582Z,79
2023-04-07T12:17:02.591Z,79
2023-04-07T12:18:03.212Z,79
2023-04-07T12:19:02.946Z,79
2023-04-07T12:20:02.972Z,79
2023-04-07T12:21:03.096Z,79
2023-04-07T12:22:03.293Z,79
2023-04-07T12:23:02.566Z,79
2023-04-07T12:24:02.402Z,79
2023-04-07T12:25:02.503Z,79
2023-04-07T12:26:02.273Z,79
2023-04-07T12:27:02.227Z,79
2023-04-07T12:28:02.863Z,79
2023-04-07T12:29:02.987Z,79
2023-04-07T12:30:02.516Z,80
2023-04-07T12:31:02.598Z,79
2023-04-07T12:32:02.793Z,79
2023-04-07T12:33:02.383Z,79
2023-04-07T12:34:02.080Z,79
2023-04-07T12:35:02.427Z,79
2023-04-07T12:36:02.110Z,79
2023-04-07T12:37:02.274Z,79
2023-04-07T12:38:02.588Z,79
2023-04-07T12:39:02.390Z,79
2023-04-07T12:40:02.358Z,79
2023-04-07T12:41:02.721Z,78
2023-04-07T12:42:02.792Z,79
2023-04-07T12:43:03.073Z,79
2023-04-07T12:44:03.177Z,78
2023-04-07T12:45:02.962Z,78
2023-04-07T12:46:02.656Z,79
2023-04-07T12:47:03.016Z,79
2023-04-07T12:48:02.268Z,79
2023-04-07T12:49:02.574Z,78
2023-04-07T12:50:02.504Z,78
2023-04-07T12:51:02.690Z,78
2023-04-07T12:52:02.750Z,78
2023-04-07T12:53:02.656Z,78
2023-04-07T12:54:02.769Z,78
2023-04-07T12:55:02.876Z,78
2023-04-07T12:56:03.027Z,78
2023-04-07T12:57:02.550Z,78
2023-04-07T12:58:02.849Z,78
2023-04-07T12:59:02.790Z,78
2023-04-07T13:00:03.102Z,78
2023-04-07T13:01:03.116Z,78
2023-04-07T13:02:03.033Z,78
2023-04-07T13:03:02.573Z,78
2023-04-07T13:04:02.317Z,78
2023-04-07T13:05:02.070Z,79
2023-04-07T13:06:02.290Z,78
2023-04-07T13:07:02.451Z,78
2023-04-07T13:08:02.606Z,78
2023-04-07T13:09:02.657Z,78
2023-04-07T13:10:02.774Z,78
2023-04-07T13:11:02.567Z,78
2023-04-07T13:12:02.975Z,78
2023-04-07T13:13:02.748Z,78
2023-04-07T13:14:02.727Z,78
2023-04-07T13:15:03.011Z,78
2023-04-07T13:16:02.854Z,78
2023-04-07T13:17:03.238Z,78
2023-04-07T13:18:02.423Z,78
2023-04-07T13:19:02.148Z,78
2023-04-07T13:20:02.183Z,78
2023-04-07T13:21:24.806Z,78
2023-04-07T13:22:06.033Z,78
2023-04-07T13:23:08.330Z,78
2023-04-07T13:24:02.476Z,78
2023-04-07T13:25:02.494Z,78
2023-04-07T13:26:02.498Z,78
2023-04-07T13:27:02.505Z,78
2023-04-07T13:28:02.602Z,78
2023-04-07T13:29:02.517Z,78
2023-04-07T13:30:02.522Z,78
2023-04-07T13:31:02.698Z,78
2023-04-07T13:32:02.794Z,78
2023-04-07T13:33:03.049Z,78
2023-04-07T13:34:03.145Z,78
2023-04-07T13:35:03.308Z,78
2023-04-07T13:36:03.006Z,78
2023-04-07T13:37:02.927Z,78
2023-04-07T13:38:02.451Z,78
2023-04-07T13:39:02.277Z,78
2023-04-07T13:40:02.275Z,78
2023-04-07T13:41:01.983Z,78
2023-04-07T13:42:02.423Z,78
2023-04-07T13:43:02.433Z,78
2023-04-07T13:44:02.615Z,78
2023-04-07T13:45:02.124Z,78
2023-04-07T13:46:02.718Z,78
2023-04-07T13:47:02.707Z,78
2023-04-07T13:48:02.418Z,78
2023-04-07T13:49:02.312Z,77
2023-04-07T13:50:02.668Z,78
2023-04-07T13:51:02.679Z,77
2023-04-07T13:52:02.322Z,77
2023-04-07T13:53:02.881Z,77
2023-04-07T13:54:03.014Z,77
2023-04-07T13:55:03.433Z,77
2023-04-07T13:56:03.336Z,77
2023-04-07T13:57:03.513Z,77
2023-04-07T13:58:02.571Z,77
2023-04-07T13:59:02.434Z,77
2023-04-07T14:00:02.728Z,77
2023-04-07T14:01:02.230Z,77
2023-04-07T14:02:02.549Z,77
2023-04-07T14:03:02.775Z,77
2023-04-07T14:04:02.872Z,77
2023-04-07T14:05:02.254Z,77
2023-04-07T14:06:02.228Z,77
2023-04-07T14:07:02.841Z,77
2023-04-07T14:08:02.578Z,77
2023-04-07T14:09:02.554Z,77
2023-04-07T14:10:02.709Z,77
2023-04-07T14:11:02.907Z,77
2023-04-07T14:12:02.775Z,77
2023-04-07T14:13:01.832Z,77
2023-04-07T14:14:01.703Z,77
2023-04-07T14:15:01.756Z,77